sensor_id;sensor_type;location;lat;lon;timestamp;P1;durP1;ratioP1;P2;durP2;ratioP2
19059;SDS011;9663;48.996;8.334;2023-02-24T00:01:45;8.85;;;5.10;;
19059;SDS011;9663;48.996;8.334;2023-02-24T00:04:17;7.72;;;4.50;;
19059;SDS011;9663;48.996;8.334;2023-02-24T00:06:45;8.35;;;4.88;;
19059;SDS011;9663;48.996;8.334;2023-02-24T00:09:13;9.80;;;4.78;;
19059;SDS011;9663;48.996;8.334;2023-02-24T00:11:43;9.23;;;5.03;;
19059;SDS011;9663;48.996;8.334;2023-02-24T00:14:19;8.80;;;5.30;;
19059;SDS011;9663;48.996;8.334;2023-02-24T00:16:45;9.55;;;5.47;;
19059;SDS011;9663;48.996;8.334;2023-02-24T00:19:13;9.82;;;5.57;;
19059;SDS011;9663;48.996;8.334;2023-02-24T00:21:43;8.90;;;5.07;;
19059;SDS011;9663;48.996;8.334;2023-02-24T00:24:11;10.07;;;5.70;;
19059;SDS011;9663;48.996;8.334;2023-02-24T00:26:37;10.68;;;6.35;;
19059;SDS011;9663;48.996;8.334;2023-02-24T00:29:05;10.63;;;6.22;;
19059;SDS011;9663;48.996;8.334;2023-02-24T00:31:35;10.73;;;5.97;;
19059;SDS011;9663;48.996;8.334;2023-02-24T00:34:03;11.98;;;6.90;;
19059;SDS011;9663;48.996;8.334;2023-02-24T00:36:30;11.80;;;6.15;;
19059;SDS011;9663;48.996;8.334;2023-02-24T00:38:59;10.68;;;6.32;;
19059;SDS011;9663;48.996;8.334;2023-02-24T00:41:33;11.93;;;6.15;;
19059;SDS011;9663;48.996;8.334;2023-02-24T00:44:05;11.15;;;6.18;;
19059;SDS011;9663;48.996;8.334;2023-02-24T00:46:36;11.48;;;6.18;;
19059;SDS011;9663;48.996;8.334;2023-02-24T00:49:06;12.38;;;6.57;;
19059;SDS011;9663;48.996;8.334;2023-02-24T00:51:37;11.38;;;6.30;;
19059;SDS011;9663;48.996;8.334;2023-02-24T00:54:06;11.65;;;6.60;;
19059;SDS011;9663;48.996;8.334;2023-02-24T00:56:39;10.48;;;5.55;;
19059;SDS011;9663;48.996;8.334;2023-02-24T00:59:10;13.40;;;7.25;;
19059;SDS011;9663;48.996;8.334;2023-02-24T01:01:38;15.35;;;7.07;;
19059;SDS011;9663;48.996;8.334;2023-02-24T01:04:05;12.38;;;7.22;;
19059;SDS011;9663;48.996;8.334;2023-02-24T01:06:39;12.07;;;6.97;;
19059;SDS011;9663;48.996;8.334;2023-02-24T01:09:10;12.95;;;7.18;;
19059;SDS011;9663;48.996;8.334;2023-02-24T01:11:39;11.10;;;6.70;;
19059;SDS011;9663;48.996;8.334;2023-02-24T01:14:27;10.15;;;6.00;;
19059;SDS011;9663;48.996;8.334;2023-02-24T01:16:55;12.60;;;7.20;;
19059;SDS011;9663;48.996;8.334;2023-02-24T01:19:24;13.38;;;7.25;;
19059;SDS011;9663;48.996;8.334;2023-02-24T01:21:59;11.63;;;6.38;;
19059;SDS011;9663;48.996;8.334;2023-02-24T01:24:29;11.70;;;6.32;;
19059;SDS011;9663;48.996;8.334;2023-02-24T01:27:02;12.43;;;7.18;;
19059;SDS011;9663;48.996;8.334;2023-02-24T01:29:28;11.77;;;6.63;;
19059;SDS011;9663;48.996;8.334;2023-02-24T01:31:54;13.25;;;6.60;;
19059;SDS011;9663;48.996;8.334;2023-02-24T01:34:22;13.80;;;7.50;;
19059;SDS011;9663;48.996;8.334;2023-02-24T01:36:52;12.10;;;6.75;;
19059;SDS011;9663;48.996;8.334;2023-02-24T01:39:18;13.15;;;7.30;;
19059;SDS011;9663;48.996;8.334;2023-02-24T01:41:45;13.15;;;7.35;;
19059;SDS011;9663;48.996;8.334;2023-02-24T01:46:45;12.57;;;7.45;;
19059;SDS011;9663;48.996;8.334;2023-02-24T01:49:18;17.08;;;8.60;;
19059;SDS011;9663;48.996;8.334;2023-02-24T01:52:03;13.70;;;7.55;;
19059;SDS011;9663;48.996;8.334;2023-02-24T01:54:52;16.35;;;8.65;;
19059;SDS011;9663;48.996;8.334;2023-02-24T01:57:25;17.00;;;8.13;;
19059;SDS011;9663;48.996;8.334;2023-02-24T01:59:55;14.77;;;8.13;;
19059;SDS011;9663;48.996;8.334;2023-02-24T02:02:35;14.50;;;7.82;;
19059;SDS011;9663;48.996;8.334;2023-02-24T02:05:06;15.25;;;8.23;;
19059;SDS011;9663;48.996;8.334;2023-02-24T02:07:34;14.45;;;7.72;;
19059;SDS011;9663;48.996;8.334;2023-02-24T02:10:03;13.38;;;6.88;;
19059;SDS011;9663;48.996;8.334;2023-02-24T02:12:31;15.18;;;8.32;;
19059;SDS011;9663;48.996;8.334;2023-02-24T02:15:08;14.57;;;8.35;;
19059;SDS011;9663;48.996;8.334;2023-02-24T02:18:01;15.07;;;7.40;;
19059;SDS011;9663;48.996;8.334;2023-02-24T02:20:58;14.85;;;7.43;;
19059;SDS011;9663;48.996;8.334;2023-02-24T02:35:25;14.40;;;7.95;;
19059;SDS011;9663;48.996;8.334;2023-02-24T02:40:50;15.73;;;7.80;;
19059;SDS011;9663;48.996;8.334;2023-02-24T02:43:40;14.25;;;7.13;;
19059;SDS011;9663;48.996;8.334;2023-02-24T02:46:33;13.75;;;7.30;;
19059;SDS011;9663;48.996;8.334;2023-02-24T02:49:26;14.23;;;7.18;;
19059;SDS011;9663;48.996;8.334;2023-02-24T02:52:02;14.77;;;7.68;;
19059;SDS011;9663;48.996;8.334;2023-02-24T02:54:42;15.95;;;7.68;;
19059;SDS011;9663;48.996;8.334;2023-02-24T02:57:35;14.93;;;7.72;;
19059;SDS011;9663;48.996;8.334;2023-02-24T03:00:12;15.77;;;8.32;;
19059;SDS011;9663;48.996;8.334;2023-02-24T03:02:48;15.43;;;8.43;;
19059;SDS011;9663;48.996;8.334;2023-02-24T03:05:20;14.68;;;8.27;;
19059;SDS011;9663;48.996;8.334;2023-02-24T03:07:53;16.23;;;8.30;;
19059;SDS011;9663;48.996;8.334;2023-02-24T03:10:26;14.18;;;7.63;;
19059;SDS011;9663;48.996;8.334;2023-02-24T03:12:54;17.92;;;9.10;;
19059;SDS011;9663;48.996;8.334;2023-02-24T03:15:25;16.60;;;8.95;;
19059;SDS011;9663;48.996;8.334;2023-02-24T03:18:00;15.77;;;8.38;;
19059;SDS011;9663;48.996;8.334;2023-02-24T03:20:37;15.18;;;7.95;;
19059;SDS011;9663;48.996;8.334;2023-02-24T03:23:12;16.98;;;8.57;;
19059;SDS011;9663;48.996;8.334;2023-02-24T03:25:55;16.98;;;8.50;;
19059;SDS011;9663;48.996;8.334;2023-02-24T03:29:05;14.60;;;7.75;;
19059;SDS011;9663;48.996;8.334;2023-02-24T03:36:55;14.90;;;8.00;;
19059;SDS011;9663;48.996;8.334;2023-02-24T03:39:22;15.35;;;7.80;;
19059;SDS011;9663;48.996;8.334;2023-02-24T03:44:21;14.77;;;8.18;;
19059;SDS011;9663;48.996;8.334;2023-02-24T03:46:48;17.75;;;8.95;;
19059;SDS011;9663;48.996;8.334;2023-02-24T03:49:16;15.20;;;8.60;;
19059;SDS011;9663;48.996;8.334;2023-02-24T03:52:16;18.23;;;9.00;;
19059;SDS011;9663;48.996;8.334;2023-02-24T03:55:07;16.13;;;8.27;;
19059;SDS011;9663;48.996;8.334;2023-02-24T04:00:29;14.23;;;7.38;;
19059;SDS011;9663;48.996;8.334;2023-02-24T04:09:20;16.30;;;8.20;;
19059;SDS011;9663;48.996;8.334;2023-02-24T04:11:54;15.27;;;8.02;;
19059;SDS011;9663;48.996;8.334;2023-02-24T04:15:18;14.65;;;7.40;;
19059;SDS011;9663;48.996;8.334;2023-02-24T04:20:08;16.80;;;8.48;;
19059;SDS011;9663;48.996;8.334;2023-02-24T04:22:44;15.93;;;8.00;;
19059;SDS011;9663;48.996;8.334;2023-02-24T04:25:19;16.55;;;8.07;;
19059;SDS011;9663;48.996;8.334;2023-02-24T04:27:54;18.58;;;8.85;;
19059;SDS011;9663;48.996;8.334;2023-02-24T04:30:27;18.73;;;9.13;;
19059;SDS011;9663;48.996;8.334;2023-02-24T04:32:59;16.25;;;9.23;;
19059;SDS011;9663;48.996;8.334;2023-02-24T04:35:25;15.70;;;7.88;;
19059;SDS011;9663;48.996;8.334;2023-02-24T04:37:51;15.07;;;8.45;;
19059;SDS011;9663;48.996;8.334;2023-02-24T04:40:19;15.75;;;8.63;;
19059;SDS011;9663;48.996;8.334;2023-02-24T04:42:47;16.75;;;8.23;;
19059;SDS011;9663;48.996;8.334;2023-02-24T04:47:52;15.23;;;7.63;;
19059;SDS011;9663;48.996;8.334;2023-02-24T04:50:24;15.05;;;7.85;;
19059;SDS011;9663;48.996;8.334;2023-02-24T04:55:33;16.48;;;8.10;;
19059;SDS011;9663;48.996;8.334;2023-02-24T04:58:04;14.60;;;7.65;;
19059;SDS011;9663;48.996;8.334;2023-02-24T05:00:48;13.85;;;7.13;;
19059;SDS011;9663;48.996;8.334;2023-02-24T05:03:17;15.02;;;7.65;;
19059;SDS011;9663;48.996;8.334;2023-02-24T05:05:49;16.17;;;8.13;;
19059;SDS011;9663;48.996;8.334;2023-02-24T05:08:22;16.67;;;8.07;;
19059;SDS011;9663;48.996;8.334;2023-02-24T05:10:50;15.93;;;8.27;;
19059;SDS011;9663;48.996;8.334;2023-02-24T05:13:17;16.23;;;7.90;;
19059;SDS011;9663;48.996;8.334;2023-02-24T05:15:49;16.40;;;8.13;;
19059;SDS011;9663;48.996;8.334;2023-02-24T05:18:15;15.15;;;7.28;;
19059;SDS011;9663;48.996;8.334;2023-02-24T05:20:43;14.10;;;7.50;;
19059;SDS011;9663;48.996;8.334;2023-02-24T05:23:36;15.15;;;6.97;;
19059;SDS011;9663;48.996;8.334;2023-02-24T05:26:14;16.55;;;7.45;;
19059;SDS011;9663;48.996;8.334;2023-02-24T05:28:44;13.88;;;6.90;;
19059;SDS011;9663;48.996;8.334;2023-02-24T05:31:20;12.07;;;6.43;;
19059;SDS011;9663;48.996;8.334;2023-02-24T05:33:53;12.77;;;7.40;;
19059;SDS011;9663;48.996;8.334;2023-02-24T05:36:29;14.63;;;7.30;;
19059;SDS011;9663;48.996;8.334;2023-02-24T05:38:59;15.60;;;7.47;;
19059;SDS011;9663;48.996;8.334;2023-02-24T05:41:31;13.73;;;7.20;;
19059;SDS011;9663;48.996;8.334;2023-02-24T05:44:00;15.77;;;7.47;;
19059;SDS011;9663;48.996;8.334;2023-02-24T05:46:42;13.43;;;7.35;;
19059;SDS011;9663;48.996;8.334;2023-02-24T05:49:11;14.73;;;7.28;;
19059;SDS011;9663;48.996;8.334;2023-02-24T05:51:44;14.10;;;7.07;;
19059;SDS011;9663;48.996;8.334;2023-02-24T05:54:18;13.82;;;6.65;;
19059;SDS011;9663;48.996;8.334;2023-02-24T05:57:09;12.85;;;6.50;;
19059;SDS011;9663;48.996;8.334;2023-02-24T05:59:38;13.82;;;6.40;;
19059;SDS011;9663;48.996;8.334;2023-02-24T06:02:06;13.20;;;6.68;;
19059;SDS011;9663;48.996;8.334;2023-02-24T06:04:37;14.10;;;6.28;;
19059;SDS011;9663;48.996;8.334;2023-02-24T06:07:13;12.77;;;6.18;;
19059;SDS011;9663;48.996;8.334;2023-02-24T06:09:49;14.27;;;6.57;;
19059;SDS011;9663;48.996;8.334;2023-02-24T06:12:18;13.82;;;7.22;;
19059;SDS011;9663;48.996;8.334;2023-02-24T06:14:47;13.82;;;6.18;;
19059;SDS011;9663;48.996;8.334;2023-02-24T06:17:16;13.38;;;6.95;;
19059;SDS011;9663;48.996;8.334;2023-02-24T06:19:43;13.02;;;6.25;;
19059;SDS011;9663;48.996;8.334;2023-02-24T06:22:12;14.45;;;6.75;;
19059;SDS011;9663;48.996;8.334;2023-02-24T06:24:39;12.77;;;6.55;;
19059;SDS011;9663;48.996;8.334;2023-02-24T06:27:09;14.82;;;6.88;;
19059;SDS011;9663;48.996;8.334;2023-02-24T06:29:42;13.55;;;6.03;;
19059;SDS011;9663;48.996;8.334;2023-02-24T06:32:16;11.90;;;6.28;;
19059;SDS011;9663;48.996;8.334;2023-02-24T06:34:44;13.68;;;6.75;;
19059;SDS011;9663;48.996;8.334;2023-02-24T06:37:11;12.73;;;6.00;;
19059;SDS011;9663;48.996;8.334;2023-02-24T06:39:38;13.98;;;6.45;;
19059;SDS011;9663;48.996;8.334;2023-02-24T06:42:05;12.57;;;6.72;;
19059;SDS011;9663;48.996;8.334;2023-02-24T06:44:36;13.90;;;6.38;;
19059;SDS011;9663;48.996;8.334;2023-02-24T06:47:05;14.35;;;6.18;;
19059;SDS011;9663;48.996;8.334;2023-02-24T06:49:34;13.43;;;6.30;;
19059;SDS011;9663;48.996;8.334;2023-02-24T06:52:01;13.20;;;6.00;;
19059;SDS011;9663;48.996;8.334;2023-02-24T06:54:27;14.85;;;6.93;;
19059;SDS011;9663;48.996;8.334;2023-02-24T06:56:55;13.00;;;6.40;;
19059;SDS011;9663;48.996;8.334;2023-02-24T06:59:23;11.93;;;5.90;;
19059;SDS011;9663;48.996;8.334;2023-02-24T07:01:53;12.38;;;6.60;;
19059;SDS011;9663;48.996;8.334;2023-02-24T07:04:20;13.45;;;6.57;;
19059;SDS011;9663;48.996;8.334;2023-02-24T07:06:56;12.10;;;6.03;;
19059;SDS011;9663;48.996;8.334;2023-02-24T07:09:27;12.48;;;6.13;;
19059;SDS011;9663;48.996;8.334;2023-02-24T07:11:54;12.90;;;6.45;;
19059;SDS011;9663;48.996;8.334;2023-02-24T07:14:22;14.27;;;6.47;;
19059;SDS011;9663;48.996;8.334;2023-02-24T07:16:51;12.20;;;6.25;;
19059;SDS011;9663;48.996;8.334;2023-02-24T07:19:23;12.45;;;6.40;;
19059;SDS011;9663;48.996;8.334;2023-02-24T07:21:55;12.38;;;5.88;;
19059;SDS011;9663;48.996;8.334;2023-02-24T07:24:24;12.95;;;6.13;;
19059;SDS011;9663;48.996;8.334;2023-02-24T07:27:13;13.30;;;6.43;;
19059;SDS011;9663;48.996;8.334;2023-02-24T07:29:46;12.23;;;6.28;;
19059;SDS011;9663;48.996;8.334;2023-02-24T07:32:14;12.38;;;5.75;;
19059;SDS011;9663;48.996;8.334;2023-02-24T07:34:41;11.90;;;6.22;;
19059;SDS011;9663;48.996;8.334;2023-02-24T07:37:09;12.07;;;6.03;;
19059;SDS011;9663;48.996;8.334;2023-02-24T07:39:36;11.93;;;5.57;;
19059;SDS011;9663;48.996;8.334;2023-02-24T07:42:03;13.55;;;6.40;;
19059;SDS011;9663;48.996;8.334;2023-02-24T07:44:32;13.20;;;6.95;;
19059;SDS011;9663;48.996;8.334;2023-02-24T07:46:58;14.15;;;6.10;;
19059;SDS011;9663;48.996;8.334;2023-02-24T07:49:24;12.68;;;5.97;;
19059;SDS011;9663;48.996;8.334;2023-02-24T07:51:53;13.05;;;5.88;;
19059;SDS011;9663;48.996;8.334;2023-02-24T07:54:22;11.32;;;5.25;;
19059;SDS011;9663;48.996;8.334;2023-02-24T07:56:54;15.05;;;6.93;;
19059;SDS011;9663;48.996;8.334;2023-02-24T07:59:29;13.45;;;6.55;;
19059;SDS011;9663;48.996;8.334;2023-02-24T08:01:59;14.07;;;7.00;;
19059;SDS011;9663;48.996;8.334;2023-02-24T08:04:29;15.77;;;6.75;;
19059;SDS011;9663;48.996;8.334;2023-02-24T08:06:56;14.20;;;6.78;;
19059;SDS011;9663;48.996;8.334;2023-02-24T08:09:27;15.77;;;7.13;;
19059;SDS011;9663;48.996;8.334;2023-02-24T08:12:09;14.05;;;6.45;;
19059;SDS011;9663;48.996;8.334;2023-02-24T08:14:45;11.68;;;6.28;;
19059;SDS011;9663;48.996;8.334;2023-02-24T08:17:17;15.00;;;6.80;;
19059;SDS011;9663;48.996;8.334;2023-02-24T08:19:51;13.82;;;6.75;;
19059;SDS011;9663;48.996;8.334;2023-02-24T08:22:52;12.15;;;6.20;;
19059;SDS011;9663;48.996;8.334;2023-02-24T08:25:20;12.10;;;5.95;;
19059;SDS011;9663;48.996;8.334;2023-02-24T08:27:59;13.35;;;6.28;;
19059;SDS011;9663;48.996;8.334;2023-02-24T08:30:30;12.60;;;6.20;;
19059;SDS011;9663;48.996;8.334;2023-02-24T08:33:03;12.55;;;6.40;;
19059;SDS011;9663;48.996;8.334;2023-02-24T08:35:35;13.50;;;6.50;;
19059;SDS011;9663;48.996;8.334;2023-02-24T08:38:13;12.48;;;6.38;;
19059;SDS011;9663;48.996;8.334;2023-02-24T08:40:44;14.07;;;6.32;;
19059;SDS011;9663;48.996;8.334;2023-02-24T08:43:16;13.73;;;6.25;;
19059;SDS011;9663;48.996;8.334;2023-02-24T08:45:59;14.18;;;6.35;;
19059;SDS011;9663;48.996;8.334;2023-02-24T08:48:39;13.65;;;6.40;;
19059;SDS011;9663;48.996;8.334;2023-02-24T08:51:18;12.52;;;6.32;;
19059;SDS011;9663;48.996;8.334;2023-02-24T08:53:59;12.35;;;6.32;;
19059;SDS011;9663;48.996;8.334;2023-02-24T08:56:35;11.02;;;5.80;;
19059;SDS011;9663;48.996;8.334;2023-02-24T08:59:07;12.88;;;6.40;;
19059;SDS011;9663;48.996;8.334;2023-02-24T09:01:53;13.15;;;6.47;;
19059;SDS011;9663;48.996;8.334;2023-02-24T09:04:41;13.63;;;6.13;;
19059;SDS011;9663;48.996;8.334;2023-02-24T09:07:13;13.93;;;7.30;;
19059;SDS011;9663;48.996;8.334;2023-02-24T09:09:43;14.80;;;6.68;;
19059;SDS011;9663;48.996;8.334;2023-02-24T09:12:09;14.38;;;6.70;;
19059;SDS011;9663;48.996;8.334;2023-02-24T09:14:45;13.98;;;6.75;;
19059;SDS011;9663;48.996;8.334;2023-02-24T09:17:13;12.32;;;6.07;;
19059;SDS011;9663;48.996;8.334;2023-02-24T09:22:18;11.10;;;5.85;;
19059;SDS011;9663;48.996;8.334;2023-02-24T09:25:02;14.13;;;6.25;;
19059;SDS011;9663;48.996;8.334;2023-02-24T09:27:52;11.98;;;5.93;;
19059;SDS011;9663;48.996;8.334;2023-02-24T09:30:32;11.95;;;5.65;;
19059;SDS011;9663;48.996;8.334;2023-02-24T09:33:14;13.07;;;5.70;;
19059;SDS011;9663;48.996;8.334;2023-02-24T09:35:48;11.88;;;6.05;;
19059;SDS011;9663;48.996;8.334;2023-02-24T09:38:14;11.15;;;5.85;;
19059;SDS011;9663;48.996;8.334;2023-02-24T09:40:45;12.35;;;6.30;;
19059;SDS011;9663;48.996;8.334;2023-02-24T09:43:20;13.00;;;6.57;;
19059;SDS011;9663;48.996;8.334;2023-02-24T09:45:56;13.02;;;6.43;;
19059;SDS011;9663;48.996;8.334;2023-02-24T09:48:47;11.98;;;5.70;;
19059;SDS011;9663;48.996;8.334;2023-02-24T09:51:20;12.23;;;5.90;;
19059;SDS011;9663;48.996;8.334;2023-02-24T09:53:55;10.85;;;5.22;;
19059;SDS011;9663;48.996;8.334;2023-02-24T09:56:31;12.20;;;5.75;;
19059;SDS011;9663;48.996;8.334;2023-02-24T09:59:14;12.57;;;6.03;;
19059;SDS011;9663;48.996;8.334;2023-02-24T10:04:47;13.98;;;5.93;;
19059;SDS011;9663;48.996;8.334;2023-02-24T10:07:32;10.50;;;5.45;;
19059;SDS011;9663;48.996;8.334;2023-02-24T10:12:52;11.18;;;5.53;;
19059;SDS011;9663;48.996;8.334;2023-02-24T10:15:25;12.18;;;5.78;;
19059;SDS011;9663;48.996;8.334;2023-02-24T10:18:20;10.07;;;5.05;;
19059;SDS011;9663;48.996;8.334;2023-02-24T10:21:13;11.82;;;5.88;;
19059;SDS011;9663;48.996;8.334;2023-02-24T10:30:01;9.40;;;4.70;;
19059;SDS011;9663;48.996;8.334;2023-02-24T10:32:54;9.40;;;4.55;;
19059;SDS011;9663;48.996;8.334;2023-02-24T10:35:26;12.95;;;5.70;;
19059;SDS011;9663;48.996;8.334;2023-02-24T10:37:57;10.38;;;5.00;;
19059;SDS011;9663;48.996;8.334;2023-02-24T10:40:29;10.65;;;5.88;;
19059;SDS011;9663;48.996;8.334;2023-02-24T10:43:21;11.68;;;6.15;;
19059;SDS011;9663;48.996;8.334;2023-02-24T10:45:54;11.15;;;5.75;;
19059;SDS011;9663;48.996;8.334;2023-02-24T10:48:41;12.70;;;6.00;;
19059;SDS011;9663;48.996;8.334;2023-02-24T10:51:38;12.13;;;6.15;;
19059;SDS011;9663;48.996;8.334;2023-02-24T10:54:22;11.73;;;6.43;;
19059;SDS011;9663;48.996;8.334;2023-02-24T10:57:04;11.45;;;6.18;;
19059;SDS011;9663;48.996;8.334;2023-02-24T10:59:44;11.75;;;6.18;;
19059;SDS011;9663;48.996;8.334;2023-02-24T11:02:33;12.00;;;6.70;;
19059;SDS011;9663;48.996;8.334;2023-02-24T11:05:21;13.98;;;6.80;;
19059;SDS011;9663;48.996;8.334;2023-02-24T11:08:24;12.85;;;6.85;;
19059;SDS011;9663;48.996;8.334;2023-02-24T11:11:15;15.45;;;7.20;;
19059;SDS011;9663;48.996;8.334;2023-02-24T11:13:53;12.82;;;6.72;;
19059;SDS011;9663;48.996;8.334;2023-02-24T11:16:45;14.73;;;7.55;;
19059;SDS011;9663;48.996;8.334;2023-02-24T11:19:41;12.98;;;6.40;;
19059;SDS011;9663;48.996;8.334;2023-02-24T11:22:27;14.68;;;7.15;;
19059;SDS011;9663;48.996;8.334;2023-02-24T11:25:04;14.10;;;7.32;;
19059;SDS011;9663;48.996;8.334;2023-02-24T11:27:41;13.30;;;7.32;;
19059;SDS011;9663;48.996;8.334;2023-02-24T11:33:13;14.40;;;7.82;;
19059;SDS011;9663;48.996;8.334;2023-02-24T11:38:46;14.82;;;6.95;;
19059;SDS011;9663;48.996;8.334;2023-02-24T11:41:41;16.80;;;7.78;;
19059;SDS011;9663;48.996;8.334;2023-02-24T11:44:30;16.83;;;7.63;;
19059;SDS011;9663;48.996;8.334;2023-02-24T11:47:30;14.75;;;8.05;;
19059;SDS011;9663;48.996;8.334;2023-02-24T11:50:18;14.02;;;7.85;;
19059;SDS011;9663;48.996;8.334;2023-02-24T11:55:55;13.98;;;7.28;;
19059;SDS011;9663;48.996;8.334;2023-02-24T11:58:33;13.70;;;6.63;;
19059;SDS011;9663;48.996;8.334;2023-02-24T12:07:17;12.65;;;7.13;;
19059;SDS011;9663;48.996;8.334;2023-02-24T12:09:51;12.52;;;7.10;;
19059;SDS011;9663;48.996;8.334;2023-02-24T12:12:59;15.38;;;7.55;;
19059;SDS011;9663;48.996;8.334;2023-02-24T12:15:56;14.63;;;8.10;;
19059;SDS011;9663;48.996;8.334;2023-02-24T12:18:38;12.48;;;6.68;;
19059;SDS011;9663;48.996;8.334;2023-02-24T12:21:16;14.93;;;6.88;;
19059;SDS011;9663;48.996;8.334;2023-02-24T12:24:09;13.35;;;6.95;;
19059;SDS011;9663;48.996;8.334;2023-02-24T12:26:41;15.25;;;7.88;;
19059;SDS011;9663;48.996;8.334;2023-02-24T12:36:09;11.90;;;5.95;;
19059;SDS011;9663;48.996;8.334;2023-02-24T12:38:57;13.85;;;6.97;;
19059;SDS011;9663;48.996;8.334;2023-02-24T12:44:34;17.02;;;7.40;;
19059;SDS011;9663;48.996;8.334;2023-02-24T12:47:26;14.98;;;7.78;;
19059;SDS011;9663;48.996;8.334;2023-02-24T12:53:49;16.55;;;8.40;;
19059;SDS011;9663;48.996;8.334;2023-02-24T12:59:18;14.32;;;7.65;;
19059;SDS011;9663;48.996;8.334;2023-02-24T13:05:06;13.90;;;7.32;;
19059;SDS011;9663;48.996;8.334;2023-02-24T13:08:08;15.05;;;7.72;;
19059;SDS011;9663;48.996;8.334;2023-02-24T13:11:17;13.65;;;7.72;;
19059;SDS011;9663;48.996;8.334;2023-02-24T13:17:13;14.55;;;8.07;;
19059;SDS011;9663;48.996;8.334;2023-02-24T13:19:44;15.57;;;8.15;;
19059;SDS011;9663;48.996;8.334;2023-02-24T13:24:38;14.43;;;8.00;;
19059;SDS011;9663;48.996;8.334;2023-02-24T13:27:17;13.43;;;7.18;;
19059;SDS011;9663;48.996;8.334;2023-02-24T13:29:48;13.65;;;6.65;;
19059;SDS011;9663;48.996;8.334;2023-02-24T13:34:59;12.95;;;7.18;;
19059;SDS011;9663;48.996;8.334;2023-02-24T13:37:32;13.55;;;7.00;;
19059;SDS011;9663;48.996;8.334;2023-02-24T13:45:34;13.00;;;7.32;;
19059;SDS011;9663;48.996;8.334;2023-02-24T13:48:16;15.88;;;8.55;;
19059;SDS011;9663;48.996;8.334;2023-02-24T14:02:17;11.82;;;6.63;;
19059;SDS011;9663;48.996;8.334;2023-02-24T14:04:49;13.55;;;6.75;;
19059;SDS011;9663;48.996;8.334;2023-02-24T14:07:20;12.63;;;6.50;;
19059;SDS011;9663;48.996;8.334;2023-02-24T14:09:55;14.43;;;7.25;;
19059;SDS011;9663;48.996;8.334;2023-02-24T14:12:25;11.05;;;6.60;;
19059;SDS011;9663;48.996;8.334;2023-02-24T14:14:56;14.55;;;7.25;;
19059;SDS011;9663;48.996;8.334;2023-02-24T14:17:24;14.43;;;7.75;;
19059;SDS011;9663;48.996;8.334;2023-02-24T14:22:47;11.57;;;6.35;;
19059;SDS011;9663;48.996;8.334;2023-02-24T14:25:23;12.13;;;6.47;;
19059;SDS011;9663;48.996;8.334;2023-02-24T14:27:51;12.25;;;5.75;;
19059;SDS011;9663;48.996;8.334;2023-02-24T14:30:27;15.07;;;6.35;;
19059;SDS011;9663;48.996;8.334;2023-02-24T14:33:01;10.50;;;5.55;;
19059;SDS011;9663;48.996;8.334;2023-02-24T14:35:35;11.90;;;5.93;;
19059;SDS011;9663;48.996;8.334;2023-02-24T14:38:16;11.63;;;6.00;;
19059;SDS011;9663;48.996;8.334;2023-02-24T14:40:59;11.32;;;5.93;;
19059;SDS011;9663;48.996;8.334;2023-02-24T14:43:28;9.52;;;4.95;;
19059;SDS011;9663;48.996;8.334;2023-02-24T14:45:54;11.38;;;5.60;;
19059;SDS011;9663;48.996;8.334;2023-02-24T14:48:22;8.93;;;5.10;;
19059;SDS011;9663;48.996;8.334;2023-02-24T14:50:55;10.13;;;5.05;;
19059;SDS011;9663;48.996;8.334;2023-02-24T14:53:26;8.43;;;4.80;;
19059;SDS011;9663;48.996;8.334;2023-02-24T14:55:58;10.50;;;5.20;;
19059;SDS011;9663;48.996;8.334;2023-02-24T14:58:28;9.75;;;4.43;;
19059;SDS011;9663;48.996;8.334;2023-02-24T15:04:10;8.50;;;4.30;;
19059;SDS011;9663;48.996;8.334;2023-02-24T15:06:59;8.50;;;4.25;;
19059;SDS011;9663;48.996;8.334;2023-02-24T15:09:32;9.52;;;4.65;;
19059;SDS011;9663;48.996;8.334;2023-02-24T15:17:50;9.63;;;4.40;;
19059;SDS011;9663;48.996;8.334;2023-02-24T15:20:24;8.57;;;4.13;;
19059;SDS011;9663;48.996;8.334;2023-02-24T15:23:01;8.73;;;4.65;;
19059;SDS011;9663;48.996;8.334;2023-02-24T15:25:29;8.02;;;4.60;;
19059;SDS011;9663;48.996;8.334;2023-02-24T15:27:59;8.32;;;4.40;;
19059;SDS011;9663;48.996;8.334;2023-02-24T15:30:32;8.20;;;4.32;;
19059;SDS011;9663;48.996;8.334;2023-02-24T15:33:18;8.02;;;4.50;;
19059;SDS011;9663;48.996;8.334;2023-02-24T15:35:54;10.35;;;4.90;;
19059;SDS011;9663;48.996;8.334;2023-02-24T15:38:24;10.35;;;5.00;;
19059;SDS011;9663;48.996;8.334;2023-02-24T15:41:01;9.35;;;5.30;;
19059;SDS011;9663;48.996;8.334;2023-02-24T15:46:29;9.98;;;5.22;;
19059;SDS011;9663;48.996;8.334;2023-02-24T15:48:58;10.88;;;5.78;;
19059;SDS011;9663;48.996;8.334;2023-02-24T15:51:38;9.50;;;5.07;;
19059;SDS011;9663;48.996;8.334;2023-02-24T15:54:10;8.95;;;4.75;;
19059;SDS011;9663;48.996;8.334;2023-02-24T15:56:44;9.27;;;4.88;;
19059;SDS011;9663;48.996;8.334;2023-02-24T15:59:13;10.68;;;4.57;;
19059;SDS011;9663;48.996;8.334;2023-02-24T16:01:41;13.75;;;5.97;;
19059;SDS011;9663;48.996;8.334;2023-02-24T16:04:07;12.02;;;6.78;;
19059;SDS011;9663;48.996;8.334;2023-02-24T16:06:35;14.38;;;6.35;;
19059;SDS011;9663;48.996;8.334;2023-02-24T16:09:10;9.27;;;5.15;;
19059;SDS011;9663;48.996;8.334;2023-02-24T16:11:42;12.27;;;5.45;;
19059;SDS011;9663;48.996;8.334;2023-02-24T16:14:14;9.82;;;5.55;;
19059;SDS011;9663;48.996;8.334;2023-02-24T16:16:42;11.30;;;5.53;;
19059;SDS011;9663;48.996;8.334;2023-02-24T16:19:09;11.75;;;5.68;;
19059;SDS011;9663;48.996;8.334;2023-02-24T16:21:39;11.50;;;5.88;;
19059;SDS011;9663;48.996;8.334;2023-02-24T16:24:05;10.43;;;5.43;;
19059;SDS011;9663;48.996;8.334;2023-02-24T16:26:32;10.65;;;5.40;;
19059;SDS011;9663;48.996;8.334;2023-02-24T16:29:02;9.30;;;4.68;;
19059;SDS011;9663;48.996;8.334;2023-02-24T16:31:35;9.77;;;5.40;;
19059;SDS011;9663;48.996;8.334;2023-02-24T16:34:03;10.80;;;5.75;;
19059;SDS011;9663;48.996;8.334;2023-02-24T16:36:29;10.93;;;5.38;;
19059;SDS011;9663;48.996;8.334;2023-02-24T16:38:55;14.85;;;6.40;;
19059;SDS011;9663;48.996;8.334;2023-02-24T16:41:22;10.65;;;6.20;;
19059;SDS011;9663;48.996;8.334;2023-02-24T16:43:48;11.43;;;5.25;;
19059;SDS011;9663;48.996;8.334;2023-02-24T16:46:18;12.07;;;6.20;;
19059;SDS011;9663;48.996;8.334;2023-02-24T16:48:47;11.68;;;5.65;;
19059;SDS011;9663;48.996;8.334;2023-02-24T16:51:16;9.05;;;5.00;;
19059;SDS011;9663;48.996;8.334;2023-02-24T16:53:43;9.10;;;4.90;;
19059;SDS011;9663;48.996;8.334;2023-02-24T16:56:09;10.45;;;5.10;;
19059;SDS011;9663;48.996;8.334;2023-02-24T16:58:36;9.05;;;4.75;;
19059;SDS011;9663;48.996;8.334;2023-02-24T17:01:02;9.30;;;5.32;;
19059;SDS011;9663;48.996;8.334;2023-02-24T17:03:35;9.57;;;4.72;;
19059;SDS011;9663;48.996;8.334;2023-02-24T17:06:07;9.40;;;5.18;;
19059;SDS011;9663;48.996;8.334;2023-02-24T17:08:33;8.70;;;4.80;;
19059;SDS011;9663;48.996;8.334;2023-02-24T17:10:59;10.88;;;4.95;;
19059;SDS011;9663;48.996;8.334;2023-02-24T17:13:24;9.00;;;4.90;;
19059;SDS011;9663;48.996;8.334;2023-02-24T17:15:51;9.85;;;5.13;;
19059;SDS011;9663;48.996;8.334;2023-02-24T17:18:24;9.60;;;5.18;;
19059;SDS011;9663;48.996;8.334;2023-02-24T17:20:51;10.75;;;5.30;;
19059;SDS011;9663;48.996;8.334;2023-02-24T17:23:17;9.40;;;4.72;;
19059;SDS011;9663;48.996;8.334;2023-02-24T17:25:43;13.38;;;4.90;;
19059;SDS011;9663;48.996;8.334;2023-02-24T17:28:13;11.43;;;5.22;;
19059;SDS011;9663;48.996;8.334;2023-02-24T17:30:38;10.05;;;4.85;;
19059;SDS011;9663;48.996;8.334;2023-02-24T17:33:05;8.82;;;4.35;;
19059;SDS011;9663;48.996;8.334;2023-02-24T17:35:30;10.55;;;4.45;;
19059;SDS011;9663;48.996;8.334;2023-02-24T17:37:56;9.85;;;4.70;;
19059;SDS011;9663;48.996;8.334;2023-02-24T17:40:22;8.93;;;5.00;;
19059;SDS011;9663;48.996;8.334;2023-02-24T17:42:47;9.93;;;5.15;;
19059;SDS011;9663;48.996;8.334;2023-02-24T17:45:13;8.55;;;4.22;;